createdAt,value
2018-08-11T00:00:29.234Z,18.26
2018-08-11T00:02:58.246Z,18.33
2018-08-11T00:05:27.513Z,18.34
2018-08-11T00:07:56.810Z,18.27
2018-08-11T00:10:25.930Z,18.24
2018-08-11T00:12:55.007Z,18.12
2018-08-11T00:15:24.119Z,18.29
2018-08-11T00:17:53.197Z,18.13
2018-08-11T00:20:25.306Z,18.08
2018-08-11T00:22:54.422Z,18.04
2018-08-11T00:25:23.550Z,17.95
2018-08-11T00:27:53.087Z,17.93
2018-08-11T00:30:22.788Z,17.92
2018-08-11T00:32:51.863Z,17.93
2018-08-11T00:35:21.196Z,17.92
2018-08-11T00:37:50.426Z,18.04
2018-08-11T00:40:20.407Z,18.04
2018-08-11T00:42:50.713Z,17.89
2018-08-11T00:45:20.165Z,17.93
2018-08-11T00:47:50.198Z,17.93
2018-08-11T00:50:22.766Z,17.99
2018-08-11T00:52:52.418Z,18.03
2018-08-11T00:55:21.727Z,18.10
2018-08-11T00:57:51.450Z,17.96
2018-08-11T01:00:21.178Z,18.05
2018-08-11T01:02:50.646Z,18.03
2018-08-11T01:05:21.206Z,17.99
2018-08-11T01:07:51.294Z,18.07
2018-08-11T01:10:21.170Z,18.07
2018-08-11T01:12:50.537Z,18.20
2018-08-11T01:15:21.546Z,18.16
2018-08-11T01:17:52.630Z,18.19
2018-08-11T01:20:21.854Z,18.35
2018-08-11T01:22:51.839Z,18.26
2018-08-11T01:25:21.526Z,18.17
2018-08-11T01:27:51.006Z,18.29
2018-08-11T01:30:21.751Z,18.28
2018-08-11T01:32:51.465Z,18.45
2018-08-11T01:35:20.757Z,18.33
2018-08-11T01:37:50.088Z,18.51
2018-08-11T01:40:19.347Z,18.57
2018-08-11T01:42:49.290Z,18.44
2018-08-11T01:45:19.176Z,18.35
2018-08-11T01:47:48.465Z,18.28
2018-08-11T01:50:17.771Z,18.30
2018-08-11T01:52:48.140Z,18.42
2018-08-11T01:55:18.526Z,18.36
2018-08-11T01:57:48.358Z,18.32
2018-08-11T02:00:21.140Z,18.42
2018-08-11T02:02:50.416Z,18.42
2018-08-11T02:05:19.674Z,18.72
2018-08-11T02:07:48.634Z,18.85
2018-08-11T02:10:20.836Z,18.77
2018-08-11T02:12:50.229Z,18.83
2018-08-11T02:15:19.730Z,18.69
2018-08-11T02:17:49.130Z,18.94
2018-08-11T02:20:20.192Z,18.67
2018-08-11T02:22:50.339Z,18.73
2018-08-11T02:25:20.512Z,18.98
2018-08-11T02:27:49.792Z,18.78
2018-08-11T02:30:19.494Z,19.08
2018-08-11T02:32:48.962Z,19.07
2018-08-11T02:35:18.407Z,19.20
2018-08-11T02:37:47.373Z,19.13
2018-08-11T02:40:17.227Z,19.09
2018-08-11T02:42:46.386Z,19.07
2018-08-11T02:45:17.542Z,18.76
2018-08-11T02:47:48.459Z,18.44
2018-08-11T02:50:17.939Z,18.55
2018-08-11T02:52:47.495Z,18.43
2018-08-11T02:55:16.608Z,18.25
2018-08-11T02:57:46.440Z,18.26
2018-08-11T03:00:16.394Z,18.13
2018-08-11T03:02:45.354Z,17.98
2018-08-11T03:05:14.786Z,18.16
2018-08-11T03:07:44.721Z,17.77
2018-08-11T03:10:13.979Z,17.99
2018-08-11T03:12:43.089Z,18.11
2018-08-11T03:15:13.037Z,18.11
2018-08-11T03:17:42.654Z,18.06
2018-08-11T03:20:13.345Z,17.95
2018-08-11T03:22:43.027Z,18.16
2018-08-11T03:25:12.235Z,18.12
2018-08-11T03:27:41.378Z,18.24
2018-08-11T03:30:10.356Z,18.23
2018-08-11T03:32:40.233Z,18.30
2018-08-11T03:35:09.643Z,17.90
2018-08-11T03:37:38.951Z,18.13
2018-08-11T03:40:09.725Z,17.94
2018-08-11T03:42:39.394Z,17.91
2018-08-11T03:45:09.721Z,17.90
2018-08-11T03:47:38.822Z,18.00
2018-08-11T03:50:08.373Z,17.94
2018-08-11T03:52:38.137Z,17.92
2018-08-11T03:55:07.358Z,18.05
2018-08-11T03:57:36.454Z,18.01
2018-08-11T04:00:08.646Z,18.09
2018-08-11T04:02:37.912Z,17.89
2018-08-11T04:05:07.235Z,17.97
2018-08-11T04:07:36.462Z,17.75
2018-08-11T04:10:06.343Z,17.86
2018-08-11T04:12:35.294Z,18.17
2018-08-11T04:15:04.458Z,18.27
2018-08-11T04:17:39.089Z,18.22
2018-08-11T04:20:10.429Z,18.28
2018-08-11T04:22:39.479Z,18.14
2018-08-11T04:25:09.235Z,18.16
2018-08-11T04:27:38.882Z,18.04
2018-08-11T04:30:10.138Z,17.94
2018-08-11T04:32:39.156Z,18.10
2018-08-11T04:35:08.554Z,17.91
2018-08-11T04:37:38.444Z,17.90
2018-08-11T04:40:07.488Z,17.90
2018-08-11T04:42:36.724Z,17.68
2018-08-11T04:45:06.742Z,17.62
2018-08-11T04:47:35.983Z,17.67
2018-08-11T04:50:05.562Z,17.74
2018-08-11T04:52:34.798Z,17.81
2018-08-11T04:55:04.921Z,17.65
2018-08-11T04:57:34.231Z,17.63
2018-08-11T05:00:03.922Z,17.75
2018-08-11T05:02:33.603Z,17.95
2018-08-11T05:05:02.926Z,17.90
2018-08-11T05:07:32.362Z,17.79
2018-08-11T05:10:01.281Z,18.04
2018-08-11T05:12:30.277Z,18.13
2018-08-11T05:14:59.498Z,18.03
2018-08-11T05:17:28.959Z,18.00
2018-08-11T05:19:58.916Z,17.91
2018-08-11T05:22:28.009Z,18.20
2018-08-11T05:24:57.350Z,18.29
2018-08-11T05:27:26.335Z,18.47
2018-08-11T05:29:55.478Z,18.15
2018-08-11T05:32:24.583Z,18.14
2018-08-11T05:34:54.542Z,18.24
2018-08-11T05:37:23.603Z,18.38
2018-08-11T05:39:52.512Z,18.65
2018-08-11T05:42:21.575Z,18.77
2018-08-11T05:44:51.127Z,19.01
2018-08-11T05:47:20.166Z,18.70
2018-08-11T05:49:49.467Z,18.74
2018-08-11T05:52:18.636Z,18.18
2018-08-11T05:54:47.565Z,18.28
2018-08-11T05:57:16.796Z,18.52
2018-08-11T05:59:46.095Z,18.33
2018-08-11T06:02:15.131Z,18.45
2018-08-11T06:04:44.463Z,18.41
2018-08-11T06:07:13.422Z,18.53
2018-08-11T06:09:42.690Z,18.30
2018-08-11T06:12:11.622Z,18.28
2018-08-11T06:14:40.656Z,18.71
2018-08-11T06:17:09.719Z,18.73
2018-08-11T06:19:39.138Z,18.51
2018-08-11T06:22:08.114Z,19.06
2018-08-11T06:24:37.058Z,18.83
2018-08-11T06:27:06.582Z,19.30
2018-08-11T06:29:35.817Z,18.98
2018-08-11T06:32:05.259Z,19.17
2018-08-11T06:34:34.443Z,18.84
2018-08-11T06:37:03.519Z,18.45
2018-08-11T06:39:32.442Z,18.32
2018-08-11T06:42:01.688Z,18.47
2018-08-11T06:44:30.819Z,18.42
2018-08-11T06:46:59.908Z,18.49
2018-08-11T06:49:29.458Z,18.52
2018-08-11T06:51:58.690Z,18.50
2018-08-11T06:54:27.977Z,18.45
2018-08-11T06:56:57.099Z,18.41
2018-08-11T06:59:26.011Z,18.55
2018-08-11T07:01:56.148Z,18.63
2018-08-11T07:04:25.502Z,18.67
2018-08-11T07:06:54.791Z,18.79
2018-08-11T07:09:23.973Z,18.98
2018-08-11T07:11:53.526Z,19.32
2018-08-11T07:14:22.577Z,19.11
2018-08-11T07:16:52.115Z,19.71
2018-08-11T07:19:21.795Z,19.52
2018-08-11T07:21:50.909Z,19.13
2018-08-11T07:24:19.870Z,19.23
2018-08-11T07:26:49.097Z,18.99
2018-08-11T07:29:18.603Z,18.97
2018-08-11T07:31:47.982Z,19.16
2018-08-11T07:34:17.022Z,19.23
2018-08-11T07:36:46.254Z,19.73
2018-08-11T07:39:15.094Z,19.80
2018-08-11T07:41:45.374Z,20.70
2018-08-11T07:44:14.403Z,21.14
2018-08-11T07:46:43.565Z,21.46
2018-08-11T07:49:13.461Z,21.34
2018-08-11T07:51:42.713Z,21.47
2018-08-11T07:54:11.942Z,21.56
2018-08-11T07:56:41.309Z,21.95
2018-08-11T07:59:10.491Z,22.53
2018-08-11T08:01:39.724Z,22.71
2018-08-11T08:04:08.812Z,22.00
2018-08-11T08:06:38.106Z,21.27
2018-08-11T08:09:11.802Z,21.58
2018-08-11T08:11:42.165Z,21.74
2018-08-11T08:14:12.454Z,22.19
2018-08-11T08:16:41.652Z,22.10
2018-08-11T08:19:10.774Z,22.25
2018-08-11T08:21:40.543Z,22.16
2018-08-11T08:24:10.284Z,23.28
2018-08-11T08:26:39.909Z,23.27
2018-08-11T08:29:08.987Z,23.36
2018-08-11T08:31:38.482Z,23.14
2018-08-11T08:34:07.592Z,23.97
2018-08-11T08:36:36.713Z,23.65
2018-08-11T08:39:09.656Z,22.81
2018-08-11T08:41:39.636Z,22.55
2018-08-11T08:44:09.115Z,22.19
2018-08-11T08:46:38.169Z,23.04
2018-08-11T08:49:07.151Z,23.65
2018-08-11T08:51:36.827Z,23.79
2018-08-11T08:54:06.124Z,23.27
2018-08-11T08:56:35.222Z,22.38
2018-08-11T08:59:04.224Z,21.74
2018-08-11T09:01:34.654Z,21.92
2018-08-11T09:04:03.935Z,22.01
2018-08-11T09:06:33.224Z,21.28
2018-08-11T09:09:02.300Z,21.70
2018-08-11T09:11:31.386Z,22.43
2018-08-11T09:14:00.472Z,23.03
2018-08-11T09:16:29.599Z,22.62
2018-08-11T09:18:59.123Z,22.98
2018-08-11T09:21:28.174Z,22.49
2018-08-11T09:23:57.690Z,22.08
2018-08-11T09:26:26.818Z,23.34
2018-08-11T09:28:56.646Z,24.22
2018-08-11T09:31:25.557Z,24.86
2018-08-11T09:33:55.884Z,25.66
2018-08-11T09:36:25.373Z,24.73
2018-08-11T09:38:54.956Z,24.54
2018-08-11T09:41:24.050Z,23.41
2018-08-11T09:43:53.354Z,24.39
2018-08-11T09:46:23.456Z,23.25
2018-08-11T09:48:52.538Z,23.56
2018-08-11T09:51:22.268Z,23.49
2018-08-11T09:53:51.320Z,23.74
2018-08-11T09:56:20.431Z,23.78
2018-08-11T09:58:49.550Z,24.05
2018-08-11T10:01:24.107Z,25.28
2018-08-11T10:03:53.233Z,25.75
2018-08-11T10:06:22.343Z,26.08
2018-08-11T10:08:51.433Z,25.08
2018-08-11T10:11:20.558Z,24.80
2018-08-11T10:13:49.586Z,23.02
2018-08-11T10:16:19.280Z,25.02
2018-08-11T10:18:48.891Z,24.64
2018-08-11T10:21:18.170Z,24.61
2018-08-11T10:23:47.254Z,27.43
2018-08-11T10:26:16.566Z,28.28
2018-08-11T10:28:45.897Z,27.98
2018-08-11T10:31:15.353Z,27.90
2018-08-11T10:33:44.674Z,28.68
2018-08-11T10:36:13.714Z,28.11
2018-08-11T10:38:42.876Z,29.16
2018-08-11T10:41:11.923Z,28.56
2018-08-11T10:43:41.014Z,28.48
2018-08-11T10:46:10.115Z,27.89
2018-08-11T10:48:39.226Z,29.03
2018-08-11T10:51:08.527Z,28.62
2018-08-11T10:53:38.061Z,28.15
2018-08-11T10:56:07.279Z,26.92
2018-08-11T10:58:36.665Z,28.65
2018-08-11T11:01:05.682Z,27.10
2018-08-11T11:03:34.632Z,27.59
2018-08-11T11:06:04.079Z,26.46
2018-08-11T11:08:33.293Z,27.11
2018-08-11T11:11:02.688Z,27.95
2018-08-11T11:13:33.274Z,26.52
2018-08-11T11:16:02.550Z,25.70
2018-08-11T11:18:31.742Z,25.24
2018-08-11T11:21:01.758Z,25.52
2018-08-11T11:23:38.233Z,24.71
2018-08-11T11:26:09.037Z,25.26
2018-08-11T11:31:21.137Z,24.87
2018-08-11T11:33:50.719Z,25.75
2018-08-11T11:36:27.370Z,26.24
2018-08-11T11:38:58.505Z,25.24
2018-08-11T11:41:27.511Z,25.30
2018-08-11T11:43:57.491Z,25.92
2018-08-11T11:46:26.615Z,25.25
2018-08-11T11:48:55.723Z,25.56
2018-08-11T11:51:25.351Z,25.13
2018-08-11T11:53:57.392Z,25.47
2018-08-11T11:56:27.733Z,25.92
2018-08-11T11:59:00.628Z,26.15
2018-08-11T12:01:30.176Z,25.87
2018-08-11T12:04:03.435Z,26.14
2018-08-11T12:06:34.571Z,25.45
2018-08-11T12:09:03.670Z,25.31
2018-08-11T12:11:32.585Z,25.49
2018-08-11T12:14:01.526Z,25.42
2018-08-11T12:16:30.470Z,24.74
2018-08-11T12:18:59.415Z,24.59
2018-08-11T12:21:30.811Z,24.79
2018-08-11T12:24:03.909Z,25.24
2018-08-11T12:26:35.663Z,25.35
2018-08-11T12:29:05.521Z,25.54
2018-08-11T12:31:34.698Z,25.65
2018-08-11T12:34:03.954Z,25.71
2018-08-11T12:36:34.240Z,25.97
2018-08-11T12:39:12.503Z,26.08
2018-08-11T12:41:46.066Z,25.76
2018-08-11T12:44:20.905Z,25.55
2018-08-11T12:49:45.795Z,24.88
2018-08-11T12:52:14.725Z,24.69
2018-08-11T12:54:43.646Z,25.39
2018-08-11T12:57:12.686Z,25.58
2018-08-11T12:59:41.643Z,25.70
2018-08-11T13:02:10.594Z,25.59
2018-08-11T13:04:39.514Z,25.58
2018-08-11T13:07:08.537Z,25.63
2018-08-11T13:09:37.427Z,25.64
2018-08-11T13:12:06.953Z,25.75
2018-08-11T13:14:36.239Z,25.55
2018-08-11T13:17:05.242Z,25.43
2018-08-11T13:19:34.166Z,25.63
2018-08-11T13:22:03.008Z,25.12
2018-08-11T13:24:32.018Z,25.59
2018-08-11T13:27:00.953Z,25.74
2018-08-11T13:29:29.951Z,25.08
2018-08-11T13:31:58.919Z,25.65
2018-08-11T13:34:27.917Z,25.48
2018-08-11T13:36:56.848Z,24.97
2018-08-11T13:39:25.795Z,25.28
2018-08-11T13:41:54.747Z,25.62
2018-08-11T13:44:23.696Z,25.15
2018-08-11T13:46:53.114Z,25.53
2018-08-11T13:49:22.068Z,25.62
2018-08-11T13:51:51.146Z,25.17
2018-08-11T13:54:21.603Z,25.07
2018-08-11T13:56:50.552Z,25.59
2018-08-11T13:59:19.918Z,25.50
2018-08-11T14:01:49.462Z,25.52
2018-08-11T14:04:18.984Z,25.59
2018-08-11T14:06:48.050Z,25.63
2018-08-11T14:09:16.986Z,25.36
2018-08-11T14:11:46.118Z,25.66
2018-08-11T14:14:15.197Z,25.60
2018-08-11T14:16:44.511Z,25.45
2018-08-11T14:19:13.618Z,25.53
2018-08-11T14:21:42.963Z,25.72
2018-08-11T14:24:11.965Z,25.46
2018-08-11T14:26:40.892Z,25.41
2018-08-11T14:29:10.026Z,25.38
2018-08-11T14:31:39.071Z,25.49
2018-08-11T14:34:08.588Z,25.60
2018-08-11T14:36:37.570Z,25.63
2018-08-11T14:39:08.182Z,25.47
2018-08-11T14:41:37.175Z,25.72
2018-08-11T14:44:06.378Z,25.49
2018-08-11T14:46:35.286Z,25.44
2018-08-11T14:49:04.465Z,25.48
2018-08-11T14:51:33.406Z,25.14
2018-08-11T14:54:02.352Z,25.48
2018-08-11T14:56:31.334Z,25.54
2018-08-11T14:59:00.278Z,24.84
2018-08-11T15:01:29.241Z,24.66
2018-08-11T15:03:58.183Z,24.51
2018-08-11T15:06:27.104Z,24.61
2018-08-11T15:08:56.054Z,24.93
2018-08-11T15:11:25.047Z,24.87
2018-08-11T15:13:53.996Z,24.65
2018-08-11T15:16:22.971Z,24.82
2018-08-11T15:18:51.871Z,24.85
2018-08-11T15:21:20.821Z,24.85
2018-08-11T15:23:49.826Z,25.30
2018-08-11T15:26:19.271Z,25.50
2018-08-11T15:28:48.390Z,25.52
2018-08-11T15:31:17.351Z,25.19
2018-08-11T15:33:46.387Z,24.99
2018-08-11T15:36:15.384Z,25.05
2018-08-11T15:38:44.299Z,25.24
2018-08-11T15:41:13.275Z,25.30
2018-08-11T15:43:42.186Z,25.27
2018-08-11T15:46:11.162Z,25.11
2018-08-11T15:48:40.226Z,25.30
2018-08-11T15:51:09.147Z,25.35
2018-08-11T15:53:38.115Z,24.94
2018-08-11T15:56:07.095Z,24.89
2018-08-11T15:58:36.043Z,24.83
2018-08-11T16:01:05.067Z,24.86
2018-08-11T16:03:34.663Z,25.00
2018-08-11T16:06:03.620Z,25.00
2018-08-11T16:08:32.644Z,24.72
2018-08-11T16:11:01.666Z,24.65
2018-08-11T16:13:30.670Z,24.87
2018-08-11T16:15:59.634Z,24.87
2018-08-11T16:18:28.591Z,24.73
2018-08-11T16:20:57.582Z,24.76
2018-08-11T16:23:26.555Z,24.75
2018-08-11T16:25:55.466Z,24.71
2018-08-11T16:28:24.422Z,24.55
2018-08-11T16:30:53.845Z,24.56
2018-08-11T16:33:22.784Z,24.60
2018-08-11T16:35:51.942Z,24.44
2018-08-11T16:38:21.613Z,24.52
2018-08-11T16:40:50.808Z,24.51
2018-08-11T16:43:19.806Z,24.41
2018-08-11T16:45:48.771Z,24.28
2018-08-11T16:48:17.808Z,24.32
2018-08-11T16:50:46.794Z,24.18
2018-08-11T16:53:15.711Z,24.17
2018-08-11T16:55:44.706Z,23.93
2018-08-11T16:58:13.714Z,24.21
2018-08-11T17:00:42.685Z,24.20
2018-08-11T17:03:11.645Z,24.06
2018-08-11T17:05:40.609Z,23.98
2018-08-11T17:08:09.566Z,23.93
2018-08-11T17:10:39.264Z,23.87
2018-08-11T17:13:08.220Z,23.95
2018-08-11T17:15:37.210Z,23.88
2018-08-11T17:18:06.278Z,23.88
2018-08-11T17:20:35.280Z,23.92
2018-08-11T17:23:04.331Z,23.81
2018-08-11T17:25:34.033Z,23.77
2018-08-11T17:28:02.983Z,23.85
2018-08-11T17:30:32.136Z,23.87
2018-08-11T17:33:01.109Z,23.89
2018-08-11T17:35:30.202Z,24.03
2018-08-11T17:37:59.209Z,23.91
2018-08-11T17:40:28.371Z,23.79
2018-08-11T17:42:57.664Z,23.75
2018-08-11T17:45:26.595Z,23.67
2018-08-11T17:47:55.686Z,23.69
2018-08-11T17:50:25.838Z,23.45
2018-08-11T17:52:55.486Z,23.28
2018-08-11T17:55:24.933Z,23.32
2018-08-11T17:57:54.471Z,23.23
2018-08-11T18:00:23.929Z,23.09
2018-08-11T18:02:53.366Z,23.25
2018-08-11T18:05:22.710Z,23.06
2018-08-11T18:07:52.691Z,23.11
2018-08-11T18:10:23.272Z,23.10
2018-08-11T18:12:52.888Z,23.09
2018-08-11T18:15:22.479Z,23.09
2018-08-11T18:17:53.161Z,23.08
2018-08-11T18:20:24.114Z,23.00
2018-08-11T18:23:03.231Z,22.90
2018-08-11T18:25:49.504Z,22.94
2018-08-11T18:28:38.280Z,22.90
2018-08-11T18:31:20.594Z,22.81
2018-08-11T18:34:07.503Z,22.76
2018-08-11T18:39:40.617Z,22.60
2018-08-11T18:42:10.121Z,22.59
2018-08-11T18:44:39.684Z,22.65
2018-08-11T18:47:11.300Z,22.62
2018-08-11T18:49:40.790Z,22.57
2018-08-11T18:52:10.356Z,22.46
2018-08-11T18:54:39.694Z,22.37
2018-08-11T18:57:09.147Z,22.38
2018-08-11T18:59:38.811Z,22.37
2018-08-11T19:02:08.217Z,22.31
2018-08-11T19:04:37.690Z,22.20
2018-08-11T19:07:07.175Z,22.21
2018-08-11T19:09:36.637Z,22.06
2018-08-11T19:12:06.243Z,21.91
2018-08-11T19:14:35.917Z,21.81
2018-08-11T19:17:05.433Z,21.62
2018-08-11T19:19:35.582Z,21.55
2018-08-11T19:22:05.002Z,21.42
2018-08-11T19:24:34.532Z,21.27
2018-08-11T19:27:03.806Z,21.17
2018-08-11T19:29:33.139Z,21.10
2018-08-11T19:32:02.497Z,20.92
2018-08-11T19:34:31.795Z,20.84
2018-08-11T19:37:01.150Z,20.77
2018-08-11T19:39:30.499Z,20.78
2018-08-11T19:42:00.569Z,20.68
2018-08-11T19:44:29.867Z,20.41
2018-08-11T19:46:59.287Z,20.34
2018-08-11T19:49:28.886Z,20.30
2018-08-11T19:51:58.337Z,20.29
2018-08-11T19:54:27.707Z,20.13
2018-08-11T19:56:56.648Z,19.94
2018-08-11T19:59:25.758Z,19.88
2018-08-11T20:01:54.710Z,19.93
2018-08-11T20:04:23.726Z,19.91
2018-08-11T20:06:53.162Z,19.75
2018-08-11T20:09:22.138Z,19.60
2018-08-11T20:11:51.292Z,19.44
2018-08-11T20:14:20.288Z,19.37
2018-08-11T20:16:49.241Z,19.24
2018-08-11T20:19:19.060Z,19.11
2018-08-11T20:21:47.887Z,19.16
2018-08-11T20:24:17.833Z,19.26
2018-08-11T20:26:47.362Z,19.31
2018-08-11T20:29:16.447Z,19.12
2018-08-11T20:31:45.448Z,19.07
2018-08-11T20:34:15.178Z,19.02
2018-08-11T20:36:44.168Z,19.00
2018-08-11T20:39:14.299Z,18.91
2018-08-11T20:41:43.278Z,18.90
2018-08-11T20:44:12.271Z,18.79
2018-08-11T20:46:41.342Z,18.76
2018-08-11T20:49:10.347Z,18.73
2018-08-11T20:51:39.429Z,18.62
2018-08-11T20:54:08.558Z,18.60
2018-08-11T20:56:37.561Z,18.53
2018-08-11T20:59:06.540Z,18.41
2018-08-11T21:01:35.552Z,18.52
2018-08-11T21:04:04.694Z,18.46
2018-08-11T21:06:33.854Z,18.37
2018-08-11T21:09:02.934Z,18.20
2018-08-11T21:11:31.988Z,18.14
2018-08-11T21:14:00.988Z,18.17
2018-08-11T21:16:29.999Z,18.18
2018-08-11T21:18:59.110Z,18.09
2018-08-11T21:21:28.338Z,18.11
2018-08-11T21:23:57.647Z,17.97
2018-08-11T21:26:26.654Z,17.98
2018-08-11T21:28:55.641Z,18.01
2018-08-11T21:31:24.868Z,17.90
2018-08-11T21:33:54.630Z,17.78
2018-08-11T21:36:23.742Z,17.86
2018-08-11T21:38:52.736Z,17.91
2018-08-11T21:41:21.765Z,17.86
2018-08-11T21:43:51.267Z,17.82
2018-08-11T21:46:20.559Z,17.73
2018-08-11T21:48:49.815Z,17.63
2018-08-11T21:51:18.930Z,17.50
2018-08-11T21:53:48.450Z,17.45
2018-08-11T21:56:17.722Z,17.27
2018-08-11T21:58:46.794Z,17.31
2018-08-11T22:01:16.738Z,17.35
2018-08-11T22:03:46.735Z,17.23
2018-08-11T22:06:15.991Z,17.22
2018-08-11T22:08:45.567Z,17.35
2018-08-11T22:11:14.745Z,17.29
2018-08-11T22:13:44.040Z,17.21
2018-08-11T22:16:13.604Z,17.14
2018-08-11T22:18:42.847Z,17.12
2018-08-11T22:21:12.424Z,17.17
2018-08-11T22:23:41.375Z,17.06
2018-08-11T22:26:10.497Z,17.00
2018-08-11T22:28:39.854Z,16.99
2018-08-11T22:31:09.449Z,16.88
2018-08-11T22:33:38.726Z,16.86
2018-08-11T22:36:07.962Z,16.64
2018-08-11T22:38:37.053Z,16.62
2018-08-11T22:41:07.298Z,16.65
2018-08-11T22:43:36.636Z,16.64
2018-08-11T22:46:06.142Z,16.54
2018-08-11T22:48:35.520Z,16.51
2018-08-11T22:51:05.024Z,16.43
2018-08-11T22:53:34.661Z,16.52
2018-08-11T22:56:03.991Z,16.58
2018-08-11T22:58:33.913Z,16.38
2018-08-11T23:01:03.051Z,16.20
2018-08-11T23:03:32.511Z,16.07
2018-08-11T23:06:01.592Z,16.08
2018-08-11T23:08:30.722Z,16.34
2018-08-11T23:11:00.019Z,16.42
2018-08-11T23:13:29.549Z,16.32
2018-08-11T23:15:58.803Z,16.34
2018-08-11T23:18:27.758Z,16.27
2018-08-11T23:20:57.889Z,16.22
2018-08-11T23:23:27.155Z,16.20
2018-08-11T23:25:56.434Z,16.06
2018-08-11T23:28:26.294Z,16.04
2018-08-11T23:30:55.853Z,15.90
2018-08-11T23:33:25.110Z,15.81
2018-08-11T23:35:54.080Z,15.70
2018-08-11T23:38:23.869Z,15.52
2018-08-11T23:40:53.228Z,15.62
2018-08-11T23:43:22.915Z,15.44
2018-08-11T23:45:52.060Z,15.50
2018-08-11T23:48:21.481Z,15.42
2018-08-11T23:50:50.863Z,15.28
2018-08-11T23:53:19.914Z,15.67
2018-08-11T23:55:50.287Z,15.60
2018-08-11T23:58:19.646Z,15.49
